KGNV 181253Z 11004KT 10SM FEW005 27/24 A3018 RMK AO2 SLP216 T02720239